Knoxville, TN (37920)

8:05 PM EST on February 12, 2016 (GMT -0500)
Island Home | | Change Station
CLOSE
Current Station
Personal Weather Station
Location: Knoxville, TN
Elevation: 928 ft
Nearby Weather Stations

Elev 928 ft 35.95 °N, 83.88 °W | Updated 13 minutes ago

Overcast
Overcast
34.3 °F
Feels Like 34 °F
N
1.1
Wind Variable Wind from SW

Today
High -- | Low -- °F
--% Chance of Precip.
Yesterday
High -- | Low -- °F
Precip. -- in
Pressure 30.23 in
Visibility 10.0 miles
Clouds Few 2000 ft
Overcast 3700 ft
Windchill 34 °F
Dew Point 29 °F
Humidity 81%
Rainfall 0.09 in
Snow Depth Not available.
7:26 AM 6:13 PM
Waxing Crescent, 25% visible
METAR KTYS 130053Z 28008KT 10SM FEW020 OVC037 02/M03 A3021 RMK AO2 SLP236 T00171028
Pressure 30.23 in
Visibility 10.0 miles
Clouds Few 2000 ft
Overcast 3700 ft
Windchill 34 °F
Dew Point 29 °F
Humidity 81%
Rainfall 0.09 in
Snow Depth Not available.
7:26 AM 6:13 PM
Waxing Crescent, 25% visible
METAR KTYS 130053Z 28008KT 10SM FEW020 OVC037 02/M03 A3021 RMK AO2 SLP236 T00171028

10-Day Weather Forecast

Almanac

Astronomy

Feb. 12, 2016 Rise Set
Actual Time
Civil Twilight
Nautical Twilight
Astronomical Twilight
Moon
Length of Visible Light
Length of Day
Tomorrow will be .
, % of the Moon is Illuminated

Today's Extremes

State Highs State Lows

Community

WunderPhotos

Upload Photos

1,892,450 photos uploaded!

WunderBlog® & News

Nearby

Air Quality

  Air Quality AQ Index Pollutant
Not available.

Snow Depth

Station Depth Elevation

Earthquake Activity

City Distance Mag. Time & Date
Minimum magnitude displayed is 2.5.

Coastal Water Temperatures

Place Temperature

Stations

Nearby Weather Stations

Station Location Temp. Windchill Dew Point Humidity Wind Precip. Elev Updated Type
                   

Watches & Warnings

There are currently no watches in effect.